الصفحة الرئيسية
METAR-TAF:

METAR-TAF

مطار :

Launceston, أستراليا

دائرة عرض: 41-32S, خط طول: 147-12E, ارتفاع: 171 متر

مراقبة الطقس الحالي

تاريخ ووقت الإصدار 14 دقيقة قبل الساعة 19:20UTC
ريح 9 عقدة من الشمال
درجة الحرارة 7°درجة مئوية
الرطوبة 100%
ضغط 1017 hPa
الرؤية 10 كم أو أكثر

METAR: YMLT 171920Z AUTO 35009KT 9999 // NCD 07/07 Q1017 RF00.0/000.0

زمن: 05:34 (19:34 UTC)

توقعات

تاريخ ووقت الإصدار 2ساعات و 19 دقيقة قبل الساعة 17:15UTC
التوقعات صالحة من17 الساعة 18 UTC إلى 18 الساعة 18 UTC
ريح 8 عقدة من الشمال/الشمال الغربي
الرؤية 10 كم أو أكثر
الغيوم لا تقل 1500 م ولا وجود لمزنة ركامية السحاب الأسود
من 17 الساعة 2100 UTC
ريح 8 عقدة من الشمال
الرؤية 10 كم أو أكثر
غيوم قليلة على ارتفاع 2000 قدم
من 18 الساعة 0000 UTC
ريح 13 عقدة من الشمال/الشمال الغربي
الرؤية 10 كم أو أكثر
الغيوم لا تقل 1500 م ولا وجود لمزنة ركامية السحاب الأسود
نظرية الاحتمالات 30%
من 17 الساعة 18 UTC إلى 17 الساعة 22 UTC
الرؤية: 0300 متر
ضباب

TAF: YMLT 171715Z 1718/1818 34008KT CAVOK FM172100 35008KT 9999 FEW020 FM180000 33013KT CAVOK PROB30 1718/1722 0300 FG

أرصاد الطقس والتوقعات من أكثر من 4000 مطار (تقارير الطقس للمطار METAR والتنبؤ بالطقس بالمطارTAF).

المحطات المتاحة هي النقط الصفراء والحمراء على الخريطة.

حرك المؤشر فوق النقطة لمعرفة اسم المحطة.

ثم انقر لمعرفة أرصاد وتوقعات الطقس.

لتغيير الخارطة: اضغط على الأزرار الخضراء مع رمز الصليب الأسود للتكبير. على الزر الأخضر مع شرطة للتصغير، أو على الأسهم الخضراء للخرائط المجاورة.


METAR-TAF: